Time;durP1;ratioP1;P1;durP2;ratioP2;P2;SDS_P1;SDS_P2;PMS_P1;PMS_P2;Temp;Humidity;BMP_temperature;BMP_pressure;BME280_temperature;BME280_humidity;BME280_pressure;Samples;Min_cycle;Max_cycle;Signal;HPM_P1;HPM_P2
2022/01/06 00:01:13;;;;;;;1.63;1.30;;;;;;;1.34;63.52;96954.88;6251018;28;20238;-72
2022/01/06 00:04:15;;;;;;;3.27;1.13;;;;;;;1.33;63.93;96948.00;6254751;28;20254;-71
2022/01/06 00:07:17;;;;;;;2.40;1.40;;;;;;;1.31;63.97;96949.81;6254365;28;20703;-72
2022/01/06 00:10:19;;;;;;;4.33;1.57;;;;;;;1.33;64.33;96962.75;6254929;28;20643;-71
2022/01/06 00:13:33;;;;;;;2.90;1.50;;;;;;;1.33;64.28;96968.78;6254416;28;20717;-72
2022/01/06 00:23:21;;;;;;;4.40;1.57;;;;;;;1.29;63.18;96995.03;6254101;28;20775;-71
2022/01/06 00:26:23;;;;;;;4.83;1.60;;;;;;;1.28;63.68;96981.19;6254623;28;20232;-72
2022/01/06 00:29:25;;;;;;;2.53;1.13;;;;;;;1.28;63.59;96996.81;6254962;28;20642;-72
2022/01/06 00:32:27;;;;;;;5.20;1.70;;;;;;;1.27;63.11;96970.88;6254607;28;20702;-72
2022/01/06 00:35:29;;;;;;;2.07;1.20;;;;;;;1.25;64.05;96970.97;6236156;28;20238;-71
2022/01/06 00:38:31;;;;;;;5.37;1.53;;;;;;;1.26;63.51;96956.22;6229964;28;20233;-72
2022/01/06 00:41:35;;;;;;;4.63;1.53;;;;;;;1.28;63.50;96962.16;6248339;28;20617;-72
2022/01/06 00:44:37;;;;;;;2.50;1.43;;;;;;;1.26;63.50;96962.25;6254122;28;20231;-72
2022/01/06 00:47:39;;;;;;;2.93;1.63;;;;;;;1.24;63.61;96952.84;6237641;28;20227;-73
2022/01/06 00:50:43;;;;;;;5.03;1.23;;;;;;;1.23;63.43;96948.56;6229514;28;20220;-72
2022/01/06 00:53:45;;;;;;;3.13;1.30;;;;;;;1.24;63.13;96948.50;6234179;28;20698;-72
2022/01/06 00:56:47;;;;;;;5.87;1.50;;;;;;;1.26;64.11;96951.00;6254073;28;20715;-70
2022/01/06 00:59:49;;;;;;;4.10;1.33;;;;;;;1.25;63.54;96951.94;6252649;28;20245;-71
2022/01/06 01:02:51;;;;;;;5.30;1.33;;;;;;;1.25;63.94;96978.75;6252670;28;20277;-74
2022/01/06 01:05:55;;;;;;;4.10;1.77;;;;;;;1.24;64.00;96947.66;6255070;28;20239;-73
2022/01/06 01:08:57;;;;;;;3.60;1.57;;;;;;;1.21;64.01;96942.63;6252547;28;20246;-71
2022/01/06 01:12:04;;;;;;;2.63;1.27;;;;;;;1.22;64.09;96955.53;6254583;28;20234;-71
2022/01/06 01:15:08;;;;;;;3.50;1.40;;;;;;;1.20;64.37;96946.16;6251071;28;20607;-71
2022/01/06 01:18:10;;;;;;;6.53;1.90;;;;;;;1.19;64.25;96939.28;6235814;28;20284;-72
2022/01/06 01:21:12;;;;;;;7.30;1.43;;;;;;;1.17;64.40;96941.97;6252609;28;20219;-71
2022/01/06 01:24:15;;;;;;;2.73;1.60;;;;;;;1.17;64.46;96946.31;6253645;28;20211;-71
2022/01/06 01:27:21;;;;;;;4.37;1.30;;;;;;;1.18;64.26;96928.06;6252742;28;20219;-72
2022/01/06 01:30:30;;;;;;;2.20;1.27;;;;;;;1.16;64.58;96924.69;6252831;28;20223;-72
2022/01/06 01:33:32;;;;;;;3.57;1.83;;;;;;;1.14;64.70;96939.53;6251803;28;20227;-72
2022/01/06 01:36:35;;;;;;;2.43;1.13;;;;;;;1.13;65.21;96930.06;6228765;28;20227;-71
2022/01/06 01:39:36;;;;;;;3.77;1.40;;;;;;;1.12;65.52;96938.75;6241954;28;20222;-72
2022/01/06 01:42:40;;;;;;;3.20;1.37;;;;;;;1.10;65.63;96935.41;6253908;28;20808;-71
2022/01/06 01:45:46;;;;;;;4.37;1.70;;;;;;;1.11;65.85;96939.69;6246364;28;20293;-71
2022/01/06 01:49:06;;;;;;;5.60;1.70;;;;;;;1.10;65.64;96930.22;6228624;28;20231;-71
2022/01/06 01:52:08;;;;;;;2.60;1.57;;;;;;;1.10;66.03;96932.81;6231858;28;20247;-71
2022/01/06 01:55:18;;;;;;;3.33;1.47;;;;;;;1.11;66.35;96937.94;6250963;28;20234;-71
2022/01/06 01:58:21;;;;;;;3.70;1.50;;;;;;;1.10;66.41;96944.03;6253219;28;20707;-71
2022/01/06 02:01:23;;;;;;;4.80;1.63;;;;;;;1.12;66.08;96959.56;6252434;28;20243;-72
2022/01/06 02:04:26;;;;;;;4.40;1.73;;;;;;;1.09;66.42;96955.38;6253420;28;20227;-72
2022/01/06 02:07:28;;;;;;;2.70;1.60;;;;;;;1.08;66.73;96955.47;6252570;28;20718;-71
2022/01/06 02:10:30;;;;;;;4.27;1.40;;;;;;;1.08;67.08;96953.72;6253171;28;20300;-71
2022/01/06 02:13:32;;;;;;;3.47;2.00;;;;;;;1.06;66.57;96984.13;6251933;28;20710;-72
2022/01/06 02:16:34;;;;;;;8.80;2.27;;;;;;;1.06;67.12;96978.09;6246586;28;20239;-71
2022/01/06 02:19:36;;;;;;;7.03;1.73;;;;;;;1.06;67.19;96965.94;6251334;28;20771;-71
2022/01/06 02:22:40;;;;;;;3.77;1.73;;;;;;;1.07;67.32;96972.81;6252634;28;20309;-71
2022/01/06 02:25:42;;;;;;;4.37;1.47;;;;;;;1.08;66.85;96979.69;6252093;28;20230;-72
2022/01/06 02:28:44;;;;;;;3.97;2.00;;;;;;;1.06;67.41;96965.94;6252885;28;20706;-71
2022/01/06 02:31:46;;;;;;;7.37;2.10;;;;;;;1.03;67.38;96989.47;6251847;28;20847;-71
2022/01/06 02:34:49;;;;;;;6.57;1.80;;;;;;;1.02;67.88;96981.75;6240106;28;20648;-71
2022/01/06 02:37:51;;;;;;;4.03;1.90;;;;;;;0.99;68.03;96985.38;6229650;28;20219;-70
2022/01/06 02:40:52;;;;;;;4.47;1.70;;;;;;;0.99;67.45;97000.13;6242124;28;20569;-71
2022/01/06 02:43:55;;;;;;;9.33;2.53;;;;;;;0.98;67.59;97004.47;6255567;28;20714;-71
2022/01/06 02:47:02;;;;;;;4.60;1.33;;;;;;;0.97;68.34;97002.78;6241318;28;20235;-71
2022/01/06 02:50:06;;;;;;;8.07;1.73;;;;;;;0.97;67.99;97020.16;6257179;28;20242;-70
2022/01/06 02:53:10;;;;;;;5.53;1.80;;;;;;;0.98;68.62;97021.81;6257634;28;20231;-71
2022/01/06 02:56:12;;;;;;;4.63;1.90;;;;;;;0.99;67.79;97013.94;6256879;28;20238;-71
2022/01/06 02:59:16;;;;;;;8.17;1.57;;;;;;;0.99;67.63;97002.72;6257642;28;20219;-71
2022/01/06 03:02:18;;;;;;;4.63;1.80;;;;;;;0.98;68.18;97007.06;6257066;28;20230;-71
2022/01/06 03:05:20;;;;;;;7.63;2.10;;;;;;;0.97;68.15;97015.78;6256510;28;20749;-71
2022/01/06 03:08:23;;;;;;;4.73;2.00;;;;;;;1.00;68.30;97012.16;6255243;28;20219;-71
2022/01/06 03:11:26;;;;;;;5.27;1.80;;;;;;;1.00;68.63;97019.97;6254970;28;20543;-71
2022/01/06 03:14:30;;;;;;;2.77;1.57;;;;;;;1.03;68.31;97022.41;6256945;28;20404;-71
2022/01/06 03:17:31;;;;;;;3.33;1.50;;;;;;;1.00;68.70;97022.56;6234053;28;20589;-71
2022/01/06 03:20:34;;;;;;;5.60;1.87;;;;;;;0.99;68.84;97018.31;6255040;28;20242;-71
2022/01/06 03:23:36;;;;;;;2.40;1.87;;;;;;;1.03;68.43;97018.03;6256326;28;20253;-72
2022/01/06 03:26:38;;;;;;;5.37;1.40;;;;;;;1.01;68.21;97019.88;6254854;28;20706;-71
2022/01/06 03:29:39;;;;;;;2.73;1.40;;;;;;;1.02;68.05;97029.34;6257423;28;20219;-71
2022/01/06 03:32:42;;;;;;;2.93;2.00;;;;;;;1.05;68.11;97033.56;6256095;28;20231;-71
2022/01/06 03:35:44;;;;;;;3.80;1.43;;;;;;;1.02;68.31;97026.75;6236685;28;20805;-71
2022/01/06 03:38:46;;;;;;;6.47;1.70;;;;;;;1.01;69.02;97024.25;6232638;28;20238;-71
2022/01/06 03:41:48;;;;;;;5.57;1.90;;;;;;;1.01;68.13;97051.06;6255748;28;20231;-72
2022/01/06 03:44:50;;;;;;;6.93;2.00;;;;;;;1.01;68.24;97045.03;6256047;28;20229;-71
2022/01/06 03:47:53;;;;;;;3.33;1.60;;;;;;;0.99;69.16;97054.69;6242122;28;20231;-71
2022/01/06 03:50:55;;;;;;;3.07;1.43;;;;;;;1.01;68.93;97052.81;6232623;28;20223;-72
2022/01/06 03:53:56;;;;;;;2.10;1.70;;;;;;;1.00;68.75;97046.78;6243567;28;20227;-71
2022/01/06 03:56:59;;;;;;;4.37;1.70;;;;;;;0.96;68.76;97036.66;6255460;28;20609;-71
2022/01/06 04:00:08;;;;;;;4.93;1.53;;;;;;;0.93;69.57;97040.22;6255952;28;20352;-70
2022/01/06 04:03:13;;;;;;;5.43;1.43;;;;;;;0.94;69.40;97056.66;6232680;28;20228;-72
2022/01/06 04:06:17;;;;;;;4.13;1.77;;;;;;;0.96;69.48;97047.03;6256419;28;20210;-71
2022/01/06 04:09:19;;;;;;;3.40;1.70;;;;;;;0.98;69.45;97059.03;6237134;28;20203;-71
2022/01/06 04:12:21;;;;;;;3.73;1.80;;;;;;;1.00;68.60;97079.72;6255479;28;20223;-71
2022/01/06 04:15:26;;;;;;;3.87;1.90;;;;;;;1.06;69.05;97082.00;6250475;28;20234;-71
2022/01/06 04:18:28;;;;;;;3.90;1.77;;;;;;;1.08;69.17;97069.78;6247934;28;20223;-71
2022/01/06 04:21:30;;;;;;;5.50;1.90;;;;;;;1.09;69.46;97079.25;6254856;28;20219;-71
2022/01/06 04:24:34;;;;;;;4.27;1.77;;;;;;;1.07;69.71;97081.09;6254903;28;20223;-71
2022/01/06 04:27:37;;;;;;;2.80;1.50;;;;;;;1.08;69.53;97090.56;6254798;28;20289;-71
2022/01/06 04:30:39;;;;;;;2.50;2.17;;;;;;;1.16;69.22;97095.34;6255094;28;20226;-71
2022/01/06 04:33:41;;;;;;;6.07;2.23;;;;;;;1.14;69.05;97098.03;6251309;28;20238;-71
2022/01/06 04:36:49;;;;;;;2.00;1.50;;;;;;;1.16;69.09;97095.34;6205550;28;20228;-72
2022/01/06 04:39:51;;;;;;;3.13;1.80;;;;;;;1.18;69.17;97106.53;6249198;28;20269;-71
2022/01/06 04:42:53;;;;;;;5.67;1.90;;;;;;;1.19;69.23;97085.66;6252892;28;20237;-71
2022/01/06 04:45:55;;;;;;;2.63;1.77;;;;;;;1.20;69.10;97102.09;6245156;28;20231;-72
2022/01/06 04:48:57;;;;;;;4.87;1.90;;;;;;;1.18;69.21;97103.91;6240333;28;20237;-72
2022/01/06 04:52:01;;;;;;;4.77;2.00;;;;;;;1.18;69.41;97104.75;6253336;28;20241;-72
2022/01/06 04:55:04;;;;;;;4.60;1.93;;;;;;;1.22;69.59;97105.41;6254814;28;20270;-71
2022/01/06 04:58:06;;;;;;;3.70;1.80;;;;;;;1.18;70.17;97109.97;6252072;28;20285;-72
2022/01/06 05:01:08;;;;;;;5.47;1.73;;;;;;;1.19;69.66;97105.59;6251592;28;20724;-71
2022/01/06 05:04:10;;;;;;;2.57;1.80;;;;;;;1.21;69.85;97135.75;6254678;28;20227;-72
2022/01/06 05:07:12;;;;;;;4.70;2.10;;;;;;;1.22;70.02;97121.84;6254612;28;20248;-71
2022/01/06 05:10:14;;;;;;;4.50;1.80;;;;;;;1.22;70.02;97121.00;6253812;28;20237;-72
2022/01/06 05:13:16;;;;;;;4.70;2.13;;;;;;;1.21;70.02;97130.56;6252966;28;20238;-71
2022/01/06 05:16:19;;;;;;;4.97;1.80;;;;;;;1.23;69.88;97159.09;6252235;28;20235;-72
2022/01/06 05:19:22;;;;;;;3.87;2.00;;;;;;;1.19;69.96;97132.44;6254094;28;20243;-72
2022/01/06 05:22:25;;;;;;;2.67;1.90;;;;;;;1.18;70.32;97140.31;6254372;28;20230;-71
2022/01/06 05:25:28;;;;;;;6.63;2.00;;;;;;;1.17;70.83;97134.25;6254049;28;20237;-72
2022/01/06 05:28:30;;;;;;;3.80;1.80;;;;;;;1.16;70.69;97145.56;6203253;28;20232;-71
2022/01/06 05:31:32;;;;;;;5.80;2.57;;;;;;;1.15;70.97;97141.28;6244976;28;20761;-72
2022/01/06 05:34:34;;;;;;;2.77;2.03;;;;;;;1.15;71.15;97138.69;6243270;28;20240;-72
2022/01/06 05:37:37;;;;;;;6.43;2.43;;;;;;;1.14;71.06;97130.97;6225414;28;20719;-72
2022/01/06 05:40:39;;;;;;;4.93;2.10;;;;;;;1.15;70.77;97143.88;6253455;28;20234;-72
2022/01/06 05:43:45;;;;;;;4.20;2.27;;;;;;;1.11;71.04;97144.94;6253869;28;20309;-71
2022/01/06 05:46:47;;;;;;;5.30;3.07;;;;;;;1.08;71.29;97160.72;6243992;28;21038;-71
2022/01/06 05:49:49;;;;;;;4.97;2.60;;;;;;;1.08;70.95;97152.94;6228138;28;20269;-71
2022/01/06 05:52:54;;;;;;;3.80;2.37;;;;;;;1.05;71.01;97148.72;6226848;28;20236;-71
2022/01/06 05:55:56;;;;;;;5.03;2.77;;;;;;;1.03;71.20;97150.53;6252281;28;20231;-72
2022/01/06 05:58:58;;;;;;;3.73;2.17;;;;;;;0.97;71.50;97150.88;6250647;28;20231;-71
2022/01/06 06:02:01;;;;;;;6.93;2.40;;;;;;;0.97;71.39;97145.69;6252479;28;20235;-72
2022/01/06 06:05:04;;;;;;;4.73;2.57;;;;;;;0.91;71.35;97158.13;6252031;28;20237;-71
2022/01/06 06:08:06;;;;;;;7.33;2.80;;;;;;;0.88;72.00;97155.69;6252512;28;20272;-72
2022/01/06 06:11:08;;;;;;;5.20;3.00;;;;;;;0.83;72.06;97168.88;6251071;28;20247;-71
2022/01/06 06:14:10;;;;;;;7.07;2.70;;;;;;;0.85;72.17;97172.25;6252400;28;20233;-72
2022/01/06 06:17:12;;;;;;;4.03;2.60;;;;;;;0.83;71.93;97176.69;6235357;28;20228;-72
2022/01/06 06:20:14;;;;;;;4.10;2.40;;;;;;;0.83;72.04;97170.66;6253229;28;20238;-72
2022/01/06 06:23:16;;;;;;;6.57;2.40;;;;;;;0.81;72.01;97168.13;6252152;28;20231;-71
2022/01/06 06:26:18;;;;;;;7.33;2.70;;;;;;;0.79;71.92;97169.97;6251493;28;20254;-71
2022/01/06 06:29:20;;;;;;;3.77;2.30;;;;;;;0.82;71.53;97179.34;6253251;28;20219;-72
2022/01/06 06:32:22;;;;;;;4.63;2.37;;;;;;;0.81;72.04;97168.13;6252183;28;20223;-72
2022/01/06 06:35:24;;;;;;;8.83;2.90;;;;;;;0.81;72.23;97177.66;6240036;28;20235;-72
2022/01/06 06:38:26;;;;;;;7.97;2.60;;;;;;;0.82;72.50;97194.94;6237919;28;20226;-72
2022/01/06 06:41:28;;;;;;;7.83;3.30;;;;;;;0.82;72.47;97190.59;6256413;28;21017;-71
2022/01/06 06:44:30;;;;;;;4.83;2.70;;;;;;;0.84;72.30;97200.91;6257372;28;20231;-72
2022/01/06 06:47:32;;;;;;;4.93;2.60;;;;;;;0.84;72.23;97198.31;6237456;28;20223;-72
2022/01/06 06:50:34;;;;;;;7.83;2.53;;;;;;;0.87;72.37;97204.19;6231395;28;20270;-72
2022/01/06 06:53:36;;;;;;;4.50;2.60;;;;;;;0.92;71.68;97199.59;6247084;28;20227;-71
2022/01/06 06:56:38;;;;;;;5.67;2.60;;;;;;;0.94;71.33;97221.16;6255602;28;20227;-71
2022/01/06 06:59:40;;;;;;;5.37;2.80;;;;;;;1.03;71.76;97218.09;6255028;28;20234;-70
2022/01/06 07:02:42;;;;;;;6.23;3.20;;;;;;;1.06;71.11;97220.56;6256808;28;20215;-71
2022/01/06 07:05:44;;;;;;;3.67;2.50;;;;;;;1.10;70.98;97224.66;6252911;28;20230;-72
2022/01/06 07:08:52;;;;;;;5.60;2.57;;;;;;;1.16;71.35;97220.94;6251510;28;20219;-72
2022/01/06 07:11:54;;;;;;;4.40;2.67;;;;;;;1.16;70.84;97226.13;6251118;28;20234;-72
2022/01/06 07:14:55;;;;;;;5.43;2.67;;;;;;;1.17;71.34;97225.22;6251140;28;20274;-72
2022/01/06 07:17:58;;;;;;;4.17;2.63;;;;;;;1.20;71.00;97229.44;6246468;28;20238;-73
2022/01/06 07:20:59;;;;;;;6.43;2.37;;;;;;;1.20;71.40;97247.63;6251088;28;20718;-71
2022/01/06 07:24:02;;;;;;;5.77;2.30;;;;;;;1.22;71.21;97241.41;6251652;28;20713;-72
2022/01/06 07:27:04;;;;;;;5.07;2.43;;;;;;;1.24;70.98;97239.56;6256362;28;20211;-72
2022/01/06 07:30:07;;;;;;;4.97;2.90;;;;;;;1.29;70.78;97247.16;6254939;28;20218;-71
2022/01/06 07:33:09;;;;;;;5.47;3.03;;;;;;;1.35;70.83;97254.63;6255610;28;20264;-70
2022/01/06 07:36:11;;;;;;;4.37;2.30;;;;;;;1.38;70.36;97247.53;6231524;28;20741;-72
2022/01/06 07:39:13;;;;;;;4.60;2.00;;;;;;;1.44;70.37;97267.16;6231423;28;20219;-71
2022/01/06 07:42:15;;;;;;;9.27;3.10;;;;;;;1.51;70.36;97278.94;6249459;28;20691;-72
2022/01/06 07:45:18;;;;;;;4.20;1.90;;;;;;;1.56;70.46;97284.75;6252216;28;20630;-72
2022/01/06 07:48:26;;;;;;;3.33;2.20;;;;;;;1.58;70.72;97289.88;6220316;28;20219;-71
2022/01/06 07:51:30;;;;;;;5.20;2.20;;;;;;;1.58;69.81;97282.91;6230366;28;20701;-70
2022/01/06 07:54:32;;;;;;;3.00;2.00;;;;;;;1.61;69.39;97284.50;6238816;28;20711;-72
2022/01/06 07:57:35;;;;;;;3.47;1.90;;;;;;;1.63;68.82;97273.09;6254413;28;20691;-72
2022/01/06 08:00:36;;;;;;;3.37;2.10;;;;;;;1.67;68.79;97287.66;6255414;28;20730;-72
2022/01/06 08:03:39;;;;;;;2.63;1.63;;;;;;;1.68;68.93;97289.34;6256123;28;20722;-72
2022/01/06 08:06:40;;;;;;;2.87;1.93;;;;;;;1.69;69.40;97295.38;6255294;28;20807;-72
2022/01/06 08:09:45;;;;;;;4.50;1.80;;;;;;;1.72;68.77;97303.00;6254374;28;20242;-72
2022/01/06 08:12:47;;;;;;;2.00;1.33;;;;;;;1.82;68.15;97318.06;6254461;28;20330;-71
2022/01/06 08:15:50;;;;;;;2.37;1.67;;;;;;;1.90;68.56;97311.66;6247909;28;20793;-72
2022/01/06 08:18:52;;;;;;;3.87;2.30;;;;;;;1.89;68.11;97318.63;6238809;28;20751;-72
2022/01/06 08:21:54;;;;;;;3.97;1.80;;;;;;;1.91;68.28;97324.56;6252129;28;20250;-72
2022/01/06 08:24:56;;;;;;;3.90;1.57;;;;;;;1.92;67.66;97301.97;6253680;28;20222;-71
2022/01/06 08:27:58;;;;;;;3.20;1.63;;;;;;;1.96;67.42;97306.13;6253149;28;20235;-72
2022/01/06 08:31:00;;;;;;;2.70;1.37;;;;;;;1.96;67.91;97303.50;6254692;28;20246;-72
2022/01/06 08:34:02;;;;;;;3.63;1.60;;;;;;;1.99;67.47;97295.56;6246957;28;20236;-72
2022/01/06 08:37:04;;;;;;;1.50;1.40;;;;;;;2.05;67.50;97298.66;6229617;28;20251;-72
2022/01/06 08:40:07;;;;;;;4.70;1.80;;;;;;;2.09;67.18;97313.22;6239994;28;20234;-72
2022/01/06 08:43:09;;;;;;;3.70;1.47;;;;;;;2.17;67.05;97325.81;6254538;28;20698;-71
2022/01/06 08:46:12;;;;;;;2.97;1.23;;;;;;;2.22;65.70;97326.41;6251866;28;20597;-72
2022/01/06 08:49:15;;;;;;;2.30;1.53;;;;;;;2.21;66.09;97304.72;6232154;28;20285;-72
2022/01/06 08:52:17;;;;;;;5.80;1.53;;;;;;;2.25;65.75;97308.03;6228959;28;20354;-72
2022/01/06 08:55:19;;;;;;;4.67;1.53;;;;;;;2.36;66.17;97321.31;6253845;28;20329;-72
2022/01/06 08:58:21;;;;;;;5.47;1.73;;;;;;;2.48;65.89;97307.66;6253646;28;20245;-72
2022/01/06 09:01:23;;;;;;;2.57;1.30;;;;;;;2.53;65.46;97308.22;6254758;28;20227;-72
2022/01/06 09:04:25;;;;;;;2.67;1.40;;;;;;;2.67;65.31;97327.47;6253813;28;20234;-73
2022/01/06 09:07:27;;;;;;;2.53;1.37;;;;;;;2.84;64.48;97314.38;6253108;28;20231;-71
2022/01/06 09:10:31;;;;;;;2.77;1.50;;;;;;;3.07;64.30;97316.53;6255386;28;20234;-73
2022/01/06 09:13:53;;;;;;;2.20;1.40;;;;;;;3.16;63.79;97304.75;6257108;28;20337;-72
2022/01/06 09:16:55;;;;;;;2.70;1.63;;;;;;;3.02;64.38;97338.56;6246380;28;20280;-72
2022/01/06 09:19:57;;;;;;;3.80;1.87;;;;;;;2.85;64.90;97319.50;6252858;28;20322;-71
2022/01/06 09:23:00;;;;;;;1.83;1.57;;;;;;;2.71;65.21;97332.44;6251301;28;20226;-72
2022/01/06 09:26:03;;;;;;;3.97;1.90;;;;;;;2.92;64.87;97326.03;6252796;28;20230;-72
2022/01/06 09:29:07;;;;;;;3.20;1.80;;;;;;;3.19;64.70;97325.44;6252889;28;20247;-72
2022/01/06 09:32:09;;;;;;;3.93;1.83;;;;;;;3.39;64.81;97332.13;6253752;28;20654;-73
2022/01/06 09:35:11;;;;;;;3.33;1.50;;;;;;;3.46;64.47;97325.63;6236923;28;20228;-73
2022/01/06 09:38:14;;;;;;;2.00;1.80;;;;;;;3.53;63.62;97321.72;6235325;28;20220;-72
2022/01/06 09:41:17;;;;;;;5.60;1.57;;;;;;;3.58;63.85;97322.31;6235014;28;20220;-72
2022/01/06 09:44:19;;;;;;;3.07;1.90;;;;;;;3.48;63.88;97311.56;6253387;28;20310;-72
2022/01/06 09:47:33;;;;;;;1.80;1.30;;;;;;;3.65;63.88;97314.03;6232238;28;20700;-72
2022/01/06 09:50:43;;;;;;;2.70;1.60;;;;;;;3.63;63.56;97341.97;6228006;28;20236;-71
2022/01/06 09:53:45;;;;;;;5.13;1.70;;;;;;;3.43;64.27;97339.69;6250844;28;20227;-72
2022/01/06 09:56:47;;;;;;;2.33;1.43;;;;;;;3.39;64.07;97337.34;6251354;28;20248;-72
2022/01/06 09:59:50;;;;;;;2.77;1.37;;;;;;;3.66;63.46;97323.53;6251515;28;20235;-72
2022/01/06 10:02:55;;;;;;;3.37;1.33;;;;;;;3.97;63.37;97330.41;6250543;28;20231;-72
2022/01/06 10:06:09;;;;;;;2.40;1.50;;;;;;;3.79;61.89;97333.28;6252174;28;20232;-72
2022/01/06 10:09:11;;;;;;;2.50;1.20;;;;;;;3.95;62.14;97337.50;6253141;28;20237;-74
2022/01/06 10:12:13;;;;;;;2.77;1.07;;;;;;;4.10;60.44;97346.16;6251736;28;20217;-73
2022/01/06 10:15:21;;;;;;;2.20;1.03;;;;;;;3.98;60.88;97333.88;6249868;28;20253;-72
2022/01/06 10:18:23;;;;;;;2.20;1.17;;;;;;;4.17;60.82;97339.66;6227931;28;20241;-72
2022/01/06 10:21:31;;;;;;;1.67;1.10;;;;;;;4.35;60.00;97356.00;6256581;28;21110;-73
2022/01/06 10:24:32;;;;;;;2.07;1.07;;;;;;;4.32;60.37;97340.50;6251706;28;20284;-72
2022/01/06 10:27:37;;;;;;;2.13;1.10;;;;;;;4.61;60.20;97338.72;6250300;28;20221;-72
2022/01/06 10:30:47;;;;;;;1.07;0.97;;;;;;;4.83;58.88;97328.59;6250850;28;20232;-72
2022/01/06 10:33:49;;;;;;;2.20;1.40;;;;;;;4.62;59.35;97332.53;6247111;28;20695;-72
2022/01/06 10:36:51;;;;;;;1.10;0.90;;;;;;;4.80;59.08;97328.78;6228758;28;20742;-72
2022/01/06 10:39:59;;;;;;;2.40;1.57;;;;;;;4.98;58.85;97351.19;6232693;28;20221;-73
2022/01/06 10:43:06;;;;;;;2.33;1.13;;;;;;;5.00;58.18;97341.44;6252374;28;20757;-73
2022/01/06 10:46:08;;;;;;;2.43;1.50;;;;;;;4.88;57.64;97330.94;6243741;28;20238;-72
2022/01/06 10:49:16;;;;;;;3.23;1.60;;;;;;;4.94;58.54;97333.16;6232180;28;20234;-72
2022/01/06 10:52:25;;;;;;;1.20;1.00;;;;;;;4.88;58.76;97321.31;6228120;28;20242;-73
2022/01/06 10:55:30;;;;;;;1.40;1.23;;;;;;;4.75;57.93;97334.31;6248031;28;20265;-72
2022/01/06 10:58:32;;;;;;;2.70;1.17;;;;;;;4.78;58.37;97335.91;6254292;28;20223;-73
2022/01/06 11:01:35;;;;;;;3.30;1.23;;;;;;;4.92;57.95;97348.94;6255799;28;20281;-72
2022/01/06 11:04:37;;;;;;;3.27;1.40;;;;;;;5.00;57.30;97358.91;6256296;28;20229;-72
2022/01/06 11:07:40;;;;;;;2.50;1.30;;;;;;;5.23;57.63;97365.28;6256806;28;20233;-73
2022/01/06 11:10:48;;;;;;;2.20;1.00;;;;;;;5.44;57.12;97374.38;6255897;28;20221;-72
2022/01/06 11:13:50;;;;;;;1.80;0.87;;;;;;;5.36;57.27;97371.44;6257485;28;20238;-72
2022/01/06 11:16:52;;;;;;;1.60;1.17;;;;;;;5.51;57.35;97379.13;6240843;28;20392;-73
2022/01/06 11:19:54;;;;;;;1.63;1.07;;;;;;;5.37;55.75;97394.88;6254526;28;20234;-73
2022/01/06 11:22:58;;;;;;;3.27;1.30;;;;;;;5.69;55.95;97390.16;6257092;28;20243;-72
2022/01/06 11:26:07;;;;;;;2.93;1.00;;;;;;;6.13;54.72;97386.44;6255854;28;20714;-73
2022/01/06 11:29:11;;;;;;;1.23;0.87;;;;;;;6.37;53.69;97381.31;6256364;28;20231;-71
2022/01/06 11:32:21;;;;;;;3.80;1.20;;;;;;;6.61;52.14;97380.44;6255717;28;20227;-72
2022/01/06 11:35:23;;;;;;;2.77;1.10;;;;;;;6.89;52.17;97383.78;6238694;28;20220;-72
2022/01/06 11:38:27;;;;;;;2.57;1.20;;;;;;;6.72;52.33;97382.34;6235765;28;20234;-73
2022/01/06 11:41:37;;;;;;;2.03;1.30;;;;;;;6.59;52.52;97365.75;6255769;28;20244;-72
2022/01/06 11:44:51;;;;;;;2.30;1.33;;;;;;;6.93;52.42;97380.84;6253374;28;20296;-72
2022/01/06 11:48:02;;;;;;;2.33;1.17;;;;;;;7.19;52.07;97378.97;6231356;28;20715;-73
2022/01/06 11:51:05;;;;;;;4.37;1.13;;;;;;;7.10;52.19;97390.13;6231795;28;20267;-72
2022/01/06 11:54:19;;;;;;;4.10;1.40;;;;;;;6.77;51.46;97406.47;6249675;28;20215;-72
2022/01/06 11:57:38;;;;;;;3.50;1.53;;;;;;;6.20;52.62;97400.78;6257065;28;20813;-71
2022/01/06 12:00:42;;;;;;;2.47;1.47;;;;;;;6.05;52.51;97400.03;6255949;28;20230;-72
2022/01/06 12:03:46;;;;;;;4.17;1.20;;;;;;;5.95;53.20;97411.22;6255468;28;20227;-72
2022/01/06 12:06:49;;;;;;;5.93;1.23;;;;;;;6.12;53.49;97418.81;6253544;28;20235;-73
2022/01/06 12:09:56;;;;;;;3.73;1.30;;;;;;;6.17;52.81;97414.94;6254922;28;20289;-73
2022/01/06 12:12:59;;;;;;;2.90;0.97;;;;;;;6.00;53.04;97430.09;6254497;28;20223;-72
2022/01/06 12:16:02;;;;;;;3.17;1.07;;;;;;;5.78;53.81;97422.78;6247724;28;20612;-73
2022/01/06 12:19:17;;;;;;;3.13;1.43;;;;;;;5.38;54.58;97435.81;6255923;28;20309;-73
2022/01/06 12:22:24;;;;;;;2.33;1.10;;;;;;;5.18;55.55;97428.38;6254817;28;20234;-74
2022/01/06 12:25:27;;;;;;;3.50;1.53;;;;;;;5.06;55.99;97440.44;6253818;28;20235;-72
2022/01/06 12:28:32;;;;;;;3.20;1.10;;;;;;;5.16;55.62;97433.72;6255106;28;20227;-73
2022/01/06 12:31:35;;;;;;;3.70;1.30;;;;;;;5.09;56.08;97442.03;6252364;28;20238;-73
2022/01/06 12:34:37;;;;;;;3.67;1.50;;;;;;;4.98;56.15;97441.84;6243885;28;20240;-73
2022/01/06 12:37:41;;;;;;;5.53;1.40;;;;;;;4.99;56.12;97438.31;6229386;28;20227;-72
2022/01/06 12:40:44;;;;;;;1.83;1.40;;;;;;;5.04;56.38;97454.53;6233899;28;20223;-72
2022/01/06 12:44:08;;;;;;;4.93;1.30;;;;;;;4.91;57.72;97467.53;6255644;28;20232;-71
2022/01/06 12:47:10;;;;;;;2.90;1.40;;;;;;;4.71;59.48;97475.72;6237470;28;20236;-72
2022/01/06 12:50:12;;;;;;;1.80;1.40;;;;;;;4.30;61.36;97480.78;6230316;28;20251;-72
2022/01/06 12:53:32;;;;;;;3.67;1.40;;;;;;;3.98;62.30;97482.69;6252758;28;20237;-72
2022/01/06 12:56:42;;;;;;;3.37;1.70;;;;;;;3.84;63.07;97488.66;6254498;28;20271;-72
2022/01/06 12:59:49;;;;;;;2.07;1.50;;;;;;;3.76;63.51;97482.19;6254250;28;20229;-72
2022/01/06 13:02:56;;;;;;;2.47;1.20;;;;;;;3.66;63.91;97503.59;6251956;28;20233;-73
2022/01/06 13:06:00;;;;;;;2.43;1.20;;;;;;;3.60;64.37;97503.91;6254010;28;20232;-73
2022/01/06 13:09:14;;;;;;;4.93;1.60;;;;;;;3.50;64.88;97526.22;6226960;28;20226;-72
2022/01/06 13:12:21;;;;;;;1.93;1.20;;;;;;;3.33;65.35;97523.69;6253672;28;20216;-72
2022/01/06 13:15:31;;;;;;;3.83;1.40;;;;;;;3.15;66.80;97540.31;6249864;28;20239;-72
2022/01/06 13:18:33;;;;;;;3.60;1.60;;;;;;;2.88;69.04;97547.81;6233548;28;20238;-71
2022/01/06 13:21:39;;;;;;;3.13;1.70;;;;;;;2.71;70.21;97547.81;6253191;28;20238;-71
2022/01/06 13:24:42;;;;;;;3.10;1.60;;;;;;;2.55;71.18;97568.63;6253396;28;20245;-72
2022/01/06 13:28:07;;;;;;;4.27;1.73;;;;;;;2.50;70.07;97547.16;6252478;28;20227;-72
2022/01/06 13:31:17;;;;;;;2.23;1.30;;;;;;;2.47;69.61;97595.03;6252981;28;20286;-71
2022/01/06 13:34:19;;;;;;;2.33;1.20;;;;;;;2.42;68.74;97596.19;6244863;28;20262;-71
2022/01/06 13:37:28;;;;;;;1.87;1.03;;;;;;;2.27;70.78;97608.19;6227790;28;20319;-72
2022/01/06 13:40:30;;;;;;;1.47;0.60;;;;;;;2.10;71.35;97610.75;6243953;28;20232;-71
2022/01/06 13:43:35;;;;;;;1.87;1.00;;;;;;;1.92;72.62;97601.22;6251404;28;20235;-72
2022/01/06 13:46:51;;;;;;;2.30;0.70;;;;;;;1.76;73.46;97608.91;6247935;28;20219;-73
2022/01/06 13:53:41;;;;;;;0.77;0.60;;;;;;;1.63;72.67;97632.00;6253049;28;20233;-72
2022/01/06 13:56:42;;;;;;;0.50;0.50;;;;;;;1.67;71.80;97643.13;6252370;28;20234;-72
2022/01/06 13:59:45;;;;;;;0.67;0.20;;;;;;;1.76;71.64;97640.13;6252803;28;20227;-73
2022/01/06 14:02:48;;;;;;;0.23;0.23;;;;;;;1.76;71.15;97640.13;6250785;28;20238;-71
2022/01/06 14:05:50;;;;;;;0.93;0.50;;;;;;;1.73;71.11;97661.06;6252744;28;20237;-72
2022/01/06 14:08:52;;;;;;;1.13;0.40;;;;;;;1.69;70.53;97656.94;6252197;28;20223;-73
2022/01/06 14:11:54;;;;;;;1.27;0.50;;;;;;;1.71;71.09;97660.28;6250564;28;20230;-73
2022/01/06 14:14:57;;;;;;;0.60;0.47;;;;;;;1.67;69.92;97666.53;6251504;28;20238;-72
2022/01/06 14:17:59;;;;;;;2.27;0.60;;;;;;;1.64;69.49;97677.06;6241559;28;20710;-72
2022/01/06 14:21:02;;;;;;;0.40;0.40;;;;;;;1.64;69.40;97679.69;6251362;28;20697;-71
2022/01/06 14:24:04;;;;;;;0.47;0.40;;;;;;;1.59;69.47;97676.47;6253501;28;20979;-73
2022/01/06 14:27:06;;;;;;;2.07;0.50;;;;;;;1.53;68.90;97684.50;6251984;28;20686;-71
2022/01/06 14:30:09;;;;;;;1.23;0.70;;;;;;;1.54;68.37;97697.44;6250733;28;20660;-73
2022/01/06 14:33:18;;;;;;;0.90;0.60;;;;;;;1.55;68.42;97696.53;6255216;28;20650;-72
2022/01/06 14:36:21;;;;;;;1.73;0.70;;;;;;;1.54;69.52;97707.00;6233710;28;20719;-72
2022/01/06 14:39:23;;;;;;;1.00;0.70;;;;;;;1.49;67.48;97707.22;6250109;28;20690;-73
2022/01/06 14:42:24;;;;;;;0.70;0.70;;;;;;;1.42;68.45;97719.63;6256604;28;20227;-73
2022/01/06 14:45:29;;;;;;;0.47;0.47;;;;;;;1.34;68.92;97726.06;6252404;28;20260;-73